sensor_id;sensor_type;location;lat;lon;timestamp;pressure;altitude;pressure_sealevel;temperature;humidity
63512;BME280;49666;52.030;8.884;2024-01-30T00:00:33;101507.88;;;4.56;85.39
63512;BME280;49666;52.030;8.884;2024-01-30T00:02:58;101513.31;;;4.56;85.13
63512;BME280;49666;52.030;8.884;2024-01-30T00:05:24;101513.06;;;4.57;85.57
63512;BME280;49666;52.030;8.884;2024-01-30T00:07:50;101513.88;;;4.58;84.96
63512;BME280;49666;52.030;8.884;2024-01-30T00:10:15;101519.06;;;4.59;85.04
63512;BME280;49666;52.030;8.884;2024-01-30T00:12:40;101518.81;;;4.61;85.21
63512;BME280;49666;52.030;8.884;2024-01-30T00:15:06;101518.81;;;4.61;85.04
63512;BME280;49666;52.030;8.884;2024-01-30T00:17:34;101520.22;;;4.63;85.38
63512;BME280;49666;52.030;8.884;2024-01-30T00:20:00;101519.97;;;4.65;85.88
63512;BME280;49666;52.030;8.884;2024-01-30T00:22:25;101510.13;;;4.64;85.68
63512;BME280;49666;52.030;8.884;2024-01-30T00:24:50;101518.31;;;4.64;85.85
63512;BME280;49666;52.030;8.884;2024-01-30T00:27:15;101518.31;;;4.64;85.49
63512;BME280;49666;52.030;8.884;2024-01-30T00:29:41;101516.44;;;4.64;85.43
63512;BME280;49666;52.030;8.884;2024-01-30T00:32:06;101514.78;;;4.63;84.80
63512;BME280;49666;52.030;8.884;2024-01-30T00:34:32;101516.44;;;4.64;85.28
63512;BME280;49666;52.030;8.884;2024-01-30T00:36:57;101514.78;;;4.63;85.37
63512;BME280;49666;52.030;8.884;2024-01-30T00:39:22;101516.44;;;4.64;85.50
63512;BME280;49666;52.030;8.884;2024-01-30T00:41:48;101514.78;;;4.63;85.67
63512;BME280;49666;52.030;8.884;2024-01-30T00:44:13;101510.13;;;4.64;85.36
63512;BME280;49666;52.030;8.884;2024-01-30T00:46:39;101518.31;;;4.64;85.24
63512;BME280;49666;52.030;8.884;2024-01-30T00:49:04;101511.78;;;4.65;85.82
63512;BME280;49666;52.030;8.884;2024-01-30T00:51:29;101512.03;;;4.63;85.42
63512;BME280;49666;52.030;8.884;2024-01-30T00:53:55;101514.78;;;4.63;85.33
63512;BME280;49666;52.030;8.884;2024-01-30T00:56:20;101515.59;;;4.64;85.22
63512;BME280;49666;52.030;8.884;2024-01-30T00:58:46;101517.25;;;4.65;85.74
63512;BME280;49666;52.030;8.884;2024-01-30T01:01:11;101515.09;;;4.67;85.75
63512;BME280;49666;52.030;8.884;2024-01-30T01:03:37;101518.88;;;4.66;85.60
63512;BME280;49666;52.030;8.884;2024-01-30T01:06:02;101515.09;;;4.67;85.80
63512;BME280;49666;52.030;8.884;2024-01-30T01:08:28;101516.72;;;4.68;85.98
63512;BME280;49666;52.030;8.884;2024-01-30T01:10:53;101521.66;;;4.71;86.03
63512;BME280;49666;52.030;8.884;2024-01-30T01:13:18;101523.31;;;4.72;86.02
63512;BME280;49666;52.030;8.884;2024-01-30T01:15:44;101515.75;;;4.74;86.06
63512;BME280;49666;52.030;8.884;2024-01-30T01:18:09;101519.28;;;4.75;85.83
63512;BME280;49666;52.030;8.884;2024-01-30T01:20:34;101515.47;;;4.76;85.90
63512;BME280;49666;52.030;8.884;2024-01-30T01:23:00;101516.84;;;4.78;86.44
63512;BME280;49666;52.030;8.884;2024-01-30T01:25:25;101519.56;;;4.78;86.19
63512;BME280;49666;52.030;8.884;2024-01-30T01:27:50;101513.06;;;4.79;85.76
63512;BME280;49666;52.030;8.884;2024-01-30T01:30:18;101506.84;;;4.84;85.61
63512;BME280;49666;52.030;8.884;2024-01-30T01:32:48;101518.06;;;4.88;86.22
63512;BME280;49666;52.030;8.884;2024-01-30T01:35:23;101503.94;;;4.91;86.48
63512;BME280;49666;52.030;8.884;2024-01-30T01:37:50;101504.75;;;4.91;85.84
63512;BME280;49666;52.030;8.884;2024-01-30T01:40:23;101510.78;;;4.93;85.57
63512;BME280;49666;52.030;8.884;2024-01-30T01:42:53;101513.81;;;4.97;86.27
63512;BME280;49666;52.030;8.884;2024-01-30T01:45:19;101515.72;;;4.96;86.59
63512;BME280;49666;52.030;8.884;2024-01-30T01:47:52;101501.28;;;4.96;86.18
63512;BME280;49666;52.030;8.884;2024-01-30T01:50:18;101494.44;;;4.93;85.68
63512;BME280;49666;52.030;8.884;2024-01-30T01:52:48;101497.16;;;4.93;85.97
63512;BME280;49666;52.030;8.884;2024-01-30T01:55:15;101493.88;;;4.91;85.72
63512;BME280;49666;52.030;8.884;2024-01-30T01:57:42;101494.72;;;4.92;85.88
63512;BME280;49666;52.030;8.884;2024-01-30T02:00:09;101494.97;;;4.90;85.50
63512;BME280;49666;52.030;8.884;2024-01-30T02:02:36;101488.94;;;4.88;86.01
63512;BME280;49666;52.030;8.884;2024-01-30T02:05:02;101493.81;;;4.86;85.92
63512;BME280;49666;52.030;8.884;2024-01-30T02:07:28;101489.44;;;4.85;85.44
63512;BME280;49666;52.030;8.884;2024-01-30T02:09:54;101484.53;;;4.82;85.83
63512;BME280;49666;52.030;8.884;2024-01-30T02:12:19;101483.38;;;4.78;84.87
63512;BME280;49666;52.030;8.884;2024-01-30T02:14:48;101481.16;;;4.75;85.15
63512;BME280;49666;52.030;8.884;2024-01-30T02:17:15;101480.03;;;4.71;85.58
63512;BME280;49666;52.030;8.884;2024-01-30T02:19:40;101479.47;;;4.68;85.77
63512;BME280;49666;52.030;8.884;2024-01-30T02:22:07;101488.13;;;4.65;85.65
63512;BME280;49666;52.030;8.884;2024-01-30T02:24:32;101482.38;;;4.62;85.61
63512;BME280;49666;52.030;8.884;2024-01-30T02:26:58;101474.47;;;4.60;85.89
63512;BME280;49666;52.030;8.884;2024-01-30T02:29:23;101481.50;;;4.56;85.59
63512;BME280;49666;52.030;8.884;2024-01-30T02:31:48;101469.78;;;4.56;86.01
63512;BME280;49666;52.030;8.884;2024-01-30T02:34:14;101469.47;;;4.52;85.80
63512;BME280;49666;52.030;8.884;2024-01-30T02:36:43;101468.31;;;4.48;85.71
63512;BME280;49666;52.030;8.884;2024-01-30T02:39:08;101469.66;;;4.45;85.68
63512;BME280;49666;52.030;8.884;2024-01-30T02:41:35;101460.09;;;4.43;85.69
63512;BME280;49666;52.030;8.884;2024-01-30T02:44:00;101463.09;;;4.41;85.30
63512;BME280;49666;52.030;8.884;2024-01-30T02:46:25;101464.97;;;4.41;85.54
63512;BME280;49666;52.030;8.884;2024-01-30T02:48:51;101463.81;;;4.37;85.41
63512;BME280;49666;52.030;8.884;2024-01-30T02:51:16;101464.06;;;4.35;85.68
63512;BME280;49666;52.030;8.884;2024-01-30T02:53:42;101454.53;;;4.32;85.45
63512;BME280;49666;52.030;8.884;2024-01-30T02:56:07;101450.97;;;4.32;85.66
63512;BME280;49666;52.030;8.884;2024-01-30T02:58:35;101445.81;;;4.30;85.42
63512;BME280;49666;52.030;8.884;2024-01-30T03:01:01;101444.16;;;4.29;85.70
63512;BME280;49666;52.030;8.884;2024-01-30T03:03:26;101435.19;;;4.29;85.68
63512;BME280;49666;52.030;8.884;2024-01-30T03:05:51;101431.06;;;4.26;85.50
63512;BME280;49666;52.030;8.884;2024-01-30T03:08:16;101434.88;;;4.25;85.44
63512;BME280;49666;52.030;8.884;2024-01-30T03:10:42;101436.75;;;4.25;85.69
63512;BME280;49666;52.030;8.884;2024-01-30T03:13:07;101429.91;;;4.22;85.10
63512;BME280;49666;52.030;8.884;2024-01-30T03:15:32;101433.22;;;4.24;85.79
63512;BME280;49666;52.030;8.884;2024-01-30T03:17:58;101432.63;;;4.22;85.21
63512;BME280;49666;52.030;8.884;2024-01-30T03:20:23;101421.75;;;4.22;85.89
63512;BME280;49666;52.030;8.884;2024-01-30T03:22:49;101424.47;;;4.22;85.81
63512;BME280;49666;52.030;8.884;2024-01-30T03:25:14;101424.97;;;4.19;86.13
63512;BME280;49666;52.030;8.884;2024-01-30T03:27:39;101415.19;;;4.18;85.81
63512;BME280;49666;52.030;8.884;2024-01-30T03:30:05;101418.16;;;4.16;86.05
63512;BME280;49666;52.030;8.884;2024-01-30T03:32:31;101416.28;;;4.17;86.15
63512;BME280;49666;52.030;8.884;2024-01-30T03:34:56;101424.44;;;4.17;86.02
63512;BME280;49666;52.030;8.884;2024-01-30T03:37:23;101422.78;;;4.16;85.88
63512;BME280;49666;52.030;8.884;2024-01-30T03:39:48;101413.81;;;4.15;85.70
63512;BME280;49666;52.030;8.884;2024-01-30T03:42:13;101413.81;;;4.15;86.10
63512;BME280;49666;52.030;8.884;2024-01-30T03:44:39;101409.19;;;4.16;85.94
63512;BME280;49666;52.030;8.884;2024-01-30T03:47:04;101409.19;;;4.16;86.18
63512;BME280;49666;52.030;8.884;2024-01-30T03:49:29;101411.66;;;4.18;86.20
63512;BME280;49666;52.030;8.884;2024-01-30T03:51:55;101404.31;;;4.18;85.82
63512;BME280;49666;52.030;8.884;2024-01-30T03:54:20;101405.94;;;4.19;86.16
63512;BME280;49666;52.030;8.884;2024-01-30T03:56:45;101406.78;;;4.20;86.33
63512;BME280;49666;52.030;8.884;2024-01-30T03:59:10;101397.78;;;4.19;86.52
63512;BME280;49666;52.030;8.884;2024-01-30T04:01:36;101408.66;;;4.19;86.03
63512;BME280;49666;52.030;8.884;2024-01-30T04:04:01;101406.22;;;4.18;86.16
63512;BME280;49666;52.030;8.884;2024-01-30T04:06:26;101400.22;;;4.15;85.60
63512;BME280;49666;52.030;8.884;2024-01-30T04:08:52;101396.66;;;4.15;86.20
63512;BME280;49666;52.030;8.884;2024-01-30T04:11:20;101393.13;;;4.14;85.93
63512;BME280;49666;52.030;8.884;2024-01-30T04:13:46;101397.75;;;4.14;85.80
63512;BME280;49666;52.030;8.884;2024-01-30T04:16:22;101394.44;;;4.12;85.33
63512;BME280;49666;52.030;8.884;2024-01-30T04:18:47;101390.56;;;4.08;85.85
63512;BME280;49666;52.030;8.884;2024-01-30T04:21:13;101385.41;;;4.06;85.50
63512;BME280;49666;52.030;8.884;2024-01-30T04:23:42;101388.63;;;4.03;85.51
63512;BME280;49666;52.030;8.884;2024-01-30T04:26:07;101390.53;;;4.03;86.01
63512;BME280;49666;52.030;8.884;2024-01-30T04:28:33;101390.78;;;4.01;85.67
63512;BME280;49666;52.030;8.884;2024-01-30T04:30:58;101386.16;;;4.02;85.94
63512;BME280;49666;52.030;8.884;2024-01-30T04:33:24;101395.38;;;4.01;86.04
63512;BME280;49666;52.030;8.884;2024-01-30T04:35:49;101388.31;;;3.99;85.95
63512;BME280;49666;52.030;8.884;2024-01-30T04:38:14;101394.81;;;3.98;85.76
63512;BME280;49666;52.030;8.884;2024-01-30T04:40:40;101392.34;;;3.97;85.84
63512;BME280;49666;52.030;8.884;2024-01-30T04:43:05;101388.78;;;3.96;86.01
63512;BME280;49666;52.030;8.884;2024-01-30T04:45:31;101388.25;;;3.94;85.82
63512;BME280;49666;52.030;8.884;2024-01-30T04:47:56;101388.50;;;3.93;85.83
63512;BME280;49666;52.030;8.884;2024-01-30T04:50:22;101383.31;;;3.91;85.91
63512;BME280;49666;52.030;8.884;2024-01-30T04:52:48;101393.59;;;3.89;86.07
63512;BME280;49666;52.030;8.884;2024-01-30T04:55:13;101390.88;;;3.89;85.83
63512;BME280;49666;52.030;8.884;2024-01-30T04:57:39;101395.75;;;3.87;86.24
63512;BME280;49666;52.030;8.884;2024-01-30T05:00:04;101393.28;;;3.86;85.83
63512;BME280;49666;52.030;8.884;2024-01-30T05:02:30;101392.22;;;3.87;85.66
63512;BME280;49666;52.030;8.884;2024-01-30T05:04:56;101382.97;;;3.88;86.19
63512;BME280;49666;52.030;8.884;2024-01-30T05:07:21;101382.97;;;3.88;86.39
63512;BME280;49666;52.030;8.884;2024-01-30T05:09:46;101381.09;;;3.88;86.25
63512;BME280;49666;52.030;8.884;2024-01-30T05:12:12;101389.50;;;3.87;85.94
63512;BME280;49666;52.030;8.884;2024-01-30T05:14:37;101391.38;;;3.86;86.36
63512;BME280;49666;52.030;8.884;2024-01-30T05:17:03;101389.75;;;3.85;86.08
63512;BME280;49666;52.030;8.884;2024-01-30T05:19:28;101388.91;;;3.85;86.14
63512;BME280;49666;52.030;8.884;2024-01-30T05:21:54;101383.47;;;3.85;86.11
63512;BME280;49666;52.030;8.884;2024-01-30T05:24:19;101388.66;;;3.86;86.24
63512;BME280;49666;52.030;8.884;2024-01-30T05:26:44;101399.53;;;3.86;86.41
63512;BME280;49666;52.030;8.884;2024-01-30T05:29:10;101388.91;;;3.85;86.17
63512;BME280;49666;52.030;8.884;2024-01-30T05:31:35;101398.16;;;3.84;86.38
63512;BME280;49666;52.030;8.884;2024-01-30T05:34:01;101383.97;;;3.81;86.15
63512;BME280;49666;52.030;8.884;2024-01-30T05:36:27;101376.88;;;3.80;85.87
63512;BME280;49666;52.030;8.884;2024-01-30T05:38:52;101382.31;;;3.80;86.04
63512;BME280;49666;52.030;8.884;2024-01-30T05:41:17;101384.50;;;3.78;86.27
63512;BME280;49666;52.030;8.884;2024-01-30T05:43:43;101380.97;;;3.78;86.14
63512;BME280;49666;52.030;8.884;2024-01-30T05:46:08;101382.03;;;3.77;86.35
63512;BME280;49666;52.030;8.884;2024-01-30T05:48:33;101376.59;;;3.77;86.23
63512;BME280;49666;52.030;8.884;2024-01-30T05:51:00;101375.19;;;3.74;85.89
63512;BME280;49666;52.030;8.884;2024-01-30T05:53:25;101378.16;;;3.73;85.59
63512;BME280;49666;52.030;8.884;2024-01-30T05:55:51;101369.19;;;3.72;86.28
63512;BME280;49666;52.030;8.884;2024-01-30T05:58:16;101385.16;;;3.69;85.43
63512;BME280;49666;52.030;8.884;2024-01-30T06:00:41;101376.19;;;3.68;85.83
63512;BME280;49666;52.030;8.884;2024-01-30T06:03:07;101377.00;;;3.69;86.16
63512;BME280;49666;52.030;8.884;2024-01-30T06:05:32;101374.78;;;3.66;85.92
63512;BME280;49666;52.030;8.884;2024-01-30T06:07:57;101366.91;;;3.64;85.87
63512;BME280;49666;52.030;8.884;2024-01-30T06:10:23;101372.56;;;3.62;85.90
63512;BME280;49666;52.030;8.884;2024-01-30T06:12:48;101375.56;;;3.61;86.05
63512;BME280;49666;52.030;8.884;2024-01-30T06:15:13;101376.34;;;3.61;86.41
63512;BME280;49666;52.030;8.884;2024-01-30T06:17:39;101376.59;;;3.60;86.42
63512;BME280;49666;52.030;8.884;2024-01-30T06:20:05;101376.34;;;3.61;86.05
63512;BME280;49666;52.030;8.884;2024-01-30T06:22:31;101372.00;;;3.60;86.11
63512;BME280;49666;52.030;8.884;2024-01-30T06:24:56;101366.56;;;3.60;86.40
63512;BME280;49666;52.030;8.884;2024-01-30T06:27:21;101369.28;;;3.60;86.25
63512;BME280;49666;52.030;8.884;2024-01-30T06:29:47;101361.13;;;3.60;86.12
63512;BME280;49666;52.030;8.884;2024-01-30T06:32:12;101363.84;;;3.60;86.19
63512;BME280;49666;52.030;8.884;2024-01-30T06:34:37;101368.22;;;3.61;86.26
63512;BME280;49666;52.030;8.884;2024-01-30T06:37:05;101367.97;;;3.63;86.13
63512;BME280;49666;52.030;8.884;2024-01-30T06:39:30;101360.66;;;3.63;86.21
63512;BME280;49666;52.030;8.884;2024-01-30T06:41:56;101366.09;;;3.63;86.13
63512;BME280;49666;52.030;8.884;2024-01-30T06:44:21;101373.13;;;3.64;86.33
63512;BME280;49666;52.030;8.884;2024-01-30T06:46:46;101369.63;;;3.64;86.10
63512;BME280;49666;52.030;8.884;2024-01-30T06:49:12;101369.38;;;3.66;86.28
63512;BME280;49666;52.030;8.884;2024-01-30T06:51:37;101367.19;;;3.68;86.39
63512;BME280;49666;52.030;8.884;2024-01-30T06:54:02;101365.31;;;3.68;86.38
63512;BME280;49666;52.030;8.884;2024-01-30T06:56:28;101374.28;;;3.69;86.39
63512;BME280;49666;52.030;8.884;2024-01-30T06:58:53;101367.78;;;3.70;86.71
63512;BME280;49666;52.030;8.884;2024-01-30T07:01:19;101375.94;;;3.70;86.25
63512;BME280;49666;52.030;8.884;2024-01-30T07:03:44;101376.75;;;3.70;86.00
63512;BME280;49666;52.030;8.884;2024-01-30T07:06:09;101376.25;;;3.73;86.57
63512;BME280;49666;52.030;8.884;2024-01-30T07:08:37;101371.91;;;3.72;86.36
63512;BME280;49666;52.030;8.884;2024-01-30T07:11:06;101373.28;;;3.75;86.76
63512;BME280;49666;52.030;8.884;2024-01-30T07:13:31;101371.16;;;3.77;86.90
63512;BME280;49666;52.030;8.884;2024-01-30T07:15:57;101370.91;;;3.78;86.98
63512;BME280;49666;52.030;8.884;2024-01-30T07:18:22;101360.59;;;3.80;86.33
63512;BME280;49666;52.030;8.884;2024-01-30T07:20:48;101368.50;;;3.82;86.43
63512;BME280;49666;52.030;8.884;2024-01-30T07:23:15;101362.00;;;3.83;85.92
63512;BME280;49666;52.030;8.884;2024-01-30T07:25:43;101360.41;;;3.87;86.31
63512;BME280;49666;52.030;8.884;2024-01-30T07:28:08;101352.34;;;3.92;87.16
63512;BME280;49666;52.030;8.884;2024-01-30T07:30:43;101357.28;;;3.95;86.98
63512;BME280;49666;52.030;8.884;2024-01-30T07:33:09;101356.75;;;3.98;86.80
63512;BME280;49666;52.030;8.884;2024-01-30T07:35:35;101367.69;;;4.04;87.08
63512;BME280;49666;52.030;8.884;2024-01-30T07:38:00;101363.66;;;4.06;86.44
63512;BME280;49666;52.030;8.884;2024-01-30T07:40:25;101368.34;;;4.11;86.67
63512;BME280;49666;52.030;8.884;2024-01-30T07:42:53;101355.88;;;4.15;87.43
63512;BME280;49666;52.030;8.884;2024-01-30T07:45:18;101367.88;;;4.19;87.37
63512;BME280;49666;52.030;8.884;2024-01-30T07:47:48;101368.22;;;4.23;87.02
63512;BME280;49666;52.030;8.884;2024-01-30T07:50:13;101366.38;;;4.28;87.43
63512;BME280;49666;52.030;8.884;2024-01-30T07:52:39;101362.09;;;4.32;87.27
63512;BME280;49666;52.030;8.884;2024-01-30T07:55:05;101369.72;;;4.36;87.21
63512;BME280;49666;52.030;8.884;2024-01-30T07:57:32;101382.56;;;4.40;87.46
63512;BME280;49666;52.030;8.884;2024-01-30T07:59:59;101381.22;;;4.43;86.62
63512;BME280;49666;52.030;8.884;2024-01-30T08:02:24;101375.28;;;4.46;86.84
63512;BME280;49666;52.030;8.884;2024-01-30T08:04:49;101379.94;;;4.50;87.41
63512;BME280;49666;52.030;8.884;2024-01-30T08:07:15;101379.44;;;4.54;87.12
63512;BME280;49666;52.030;8.884;2024-01-30T08:09:40;101382.22;;;4.59;87.02
63512;BME280;49666;52.030;8.884;2024-01-30T08:12:06;101382.00;;;4.65;87.72
63512;BME280;49666;52.030;8.884;2024-01-30T08:14:31;101381.50;;;4.68;87.05
63512;BME280;49666;52.030;8.884;2024-01-30T08:16:57;101386.19;;;4.73;87.33
63512;BME280;49666;52.030;8.884;2024-01-30T08:19:22;101379.97;;;4.78;87.52
63512;BME280;49666;52.030;8.884;2024-01-30T08:21:47;101382.16;;;4.81;87.08
63512;BME280;49666;52.030;8.884;2024-01-30T08:24:12;101375.72;;;4.87;87.68
63512;BME280;49666;52.030;8.884;2024-01-30T08:26:38;101378.72;;;4.91;87.18
63512;BME280;49666;52.030;8.884;2024-01-30T08:29:03;101371.44;;;4.96;86.95
63512;BME280;49666;52.030;8.884;2024-01-30T08:31:29;101361.94;;;4.99;86.46
63512;BME280;49666;52.030;8.884;2024-01-30T08:33:54;101367.94;;;5.01;85.99
63512;BME280;49666;52.030;8.884;2024-01-30T08:36:19;101359.56;;;5.08;87.06
63512;BME280;49666;52.030;8.884;2024-01-30T08:38:45;101356.63;;;5.14;87.50
63512;BME280;49666;52.030;8.884;2024-01-30T08:41:10;101369.97;;;5.16;86.58
63512;BME280;49666;52.030;8.884;2024-01-30T08:43:35;101360.19;;;5.20;86.08
63512;BME280;49666;52.030;8.884;2024-01-30T08:46:02;101357.25;;;5.27;86.41
63512;BME280;49666;52.030;8.884;2024-01-30T08:48:27;101362.78;;;5.37;87.53
63512;BME280;49666;52.030;8.884;2024-01-30T08:50:52;101362.28;;;5.45;86.90
63512;BME280;49666;52.030;8.884;2024-01-30T08:53:18;101374.59;;;5.53;86.64
63512;BME280;49666;52.030;8.884;2024-01-30T08:55:44;101382.03;;;5.63;86.36
63512;BME280;49666;52.030;8.884;2024-01-30T08:58:09;101382.66;;;5.75;86.47
63512;BME280;49666;52.030;8.884;2024-01-30T09:00:35;101373.72;;;5.90;87.35
63512;BME280;49666;52.030;8.884;2024-01-30T09:03:00;101374.94;;;6.04;87.13
63512;BME280;49666;52.030;8.884;2024-01-30T09:05:25;101376.09;;;6.19;86.99
63512;BME280;49666;52.030;8.884;2024-01-30T09:07:51;101380.50;;;6.30;87.40
63512;BME280;49666;52.030;8.884;2024-01-30T09:10:16;101395.25;;;6.34;87.28
63512;BME280;49666;52.030;8.884;2024-01-30T09:12:41;101390.91;;;6.38;86.16
63512;BME280;49666;52.030;8.884;2024-01-30T09:15:07;101387.38;;;6.43;86.25
63512;BME280;49666;52.030;8.884;2024-01-30T09:17:32;101392.31;;;6.51;86.44
63512;BME280;49666;52.030;8.884;2024-01-30T09:19:58;101386.88;;;6.62;86.84
63512;BME280;49666;52.030;8.884;2024-01-30T09:22:23;101382.25;;;6.78;86.20
63512;BME280;49666;52.030;8.884;2024-01-30T09:24:49;101389.13;;;6.90;85.90
63512;BME280;49666;52.030;8.884;2024-01-30T09:27:14;101392.69;;;7.01;86.14
63512;BME280;49666;52.030;8.884;2024-01-30T09:29:39;101387.75;;;7.03;85.17
63512;BME280;49666;52.030;8.884;2024-01-30T09:32:05;101392.69;;;7.06;85.76
63512;BME280;49666;52.030;8.884;2024-01-30T09:34:31;101391.63;;;7.13;85.41
63512;BME280;49666;52.030;8.884;2024-01-30T09:36:57;101385.59;;;7.21;85.59
63512;BME280;49666;52.030;8.884;2024-01-30T09:39:22;101383.94;;;7.40;86.18
63512;BME280;49666;52.030;8.884;2024-01-30T09:42:07;101380.09;;;7.62;83.74
63512;BME280;49666;52.030;8.884;2024-01-30T09:44:34;101381.16;;;7.82;85.84
63512;BME280;49666;52.030;8.884;2024-01-30T09:47:01;101373.44;;;7.99;86.20
63512;BME280;49666;52.030;8.884;2024-01-30T09:49:31;101365.50;;;8.08;85.66
63512;BME280;49666;52.030;8.884;2024-01-30T09:51:57;101372.59;;;8.09;83.55
63512;BME280;49666;52.030;8.884;2024-01-30T09:54:23;101375.31;;;8.14;84.17
63512;BME280;49666;52.030;8.884;2024-01-30T09:56:48;101376.91;;;8.25;84.43
63512;BME280;49666;52.030;8.884;2024-01-30T09:59:14;101378.78;;;8.30;83.39
63512;BME280;49666;52.030;8.884;2024-01-30T10:01:40;101388.63;;;8.36;84.22
63512;BME280;49666;52.030;8.884;2024-01-30T10:04:05;101379.84;;;8.44;84.60
63512;BME280;49666;52.030;8.884;2024-01-30T10:06:32;101387.22;;;8.49;84.30
63512;BME280;49666;52.030;8.884;2024-01-30T10:08:57;101385.28;;;8.55;84.07
63512;BME280;49666;52.030;8.884;2024-01-30T10:11:22;101373.22;;;8.61;83.69
63512;BME280;49666;52.030;8.884;2024-01-30T10:13:48;101367.66;;;8.71;83.88
63512;BME280;49666;52.030;8.884;2024-01-30T10:16:14;101379.13;;;8.78;83.42
63512;BME280;49666;52.030;8.884;2024-01-30T10:18:42;101384.59;;;8.78;82.66
63512;BME280;49666;52.030;8.884;2024-01-30T10:21:08;101371.44;;;8.80;84.03
63512;BME280;49666;52.030;8.884;2024-01-30T10:23:33;101374.50;;;8.74;83.98
63512;BME280;49666;52.030;8.884;2024-01-30T10:25:59;101364.66;;;8.67;84.26
63512;BME280;49666;52.030;8.884;2024-01-30T10:28:27;101372.88;;;8.67;84.51
63512;BME280;49666;52.030;8.884;2024-01-30T10:31:01;101374.28;;;8.65;83.87
63512;BME280;49666;52.030;8.884;2024-01-30T10:33:29;101385.25;;;8.60;84.88
63512;BME280;49666;52.030;8.884;2024-01-30T10:36:01;101371.88;;;8.53;83.56
63512;BME280;49666;52.030;8.884;2024-01-30T10:38:31;101383.44;;;8.45;84.33
63512;BME280;49666;52.030;8.884;2024-01-30T10:41:01;101373.56;;;8.39;84.24
63512;BME280;49666;52.030;8.884;2024-01-30T10:43:36;101370.53;;;8.40;85.46
63512;BME280;49666;52.030;8.884;2024-01-30T10:46:13;101366.69;;;8.41;85.15
63512;BME280;49666;52.030;8.884;2024-01-30T10:48:43;101373.81;;;8.47;85.16
63512;BME280;49666;52.030;8.884;2024-01-30T10:51:11;101365.88;;;8.51;84.47
63512;BME280;49666;52.030;8.884;2024-01-30T10:53:38;101370.47;;;8.61;84.41
63512;BME280;49666;52.030;8.884;2024-01-30T10:56:04;101367.06;;;8.79;84.86
63512;BME280;49666;52.030;8.884;2024-01-30T10:58:30;101376.50;;;9.02;84.18
63512;BME280;49666;52.030;8.884;2024-01-30T11:00:56;101375.25;;;9.19;83.91
63512;BME280;49666;52.030;8.884;2024-01-30T11:03:22;101361.03;;;9.46;84.08
63512;BME280;49666;52.030;8.884;2024-01-30T11:05:51;101370.72;;;9.92;84.12
63512;BME280;49666;52.030;8.884;2024-01-30T11:08:24;101353.19;;;10.36;82.40
63512;BME280;49666;52.030;8.884;2024-01-30T11:10:55;101352.84;;;10.62;80.94
63512;BME280;49666;52.030;8.884;2024-01-30T11:13:20;101351.66;;;10.68;80.79
63512;BME280;49666;52.030;8.884;2024-01-30T11:15:47;101352.31;;;10.79;81.08
63512;BME280;49666;52.030;8.884;2024-01-30T11:18:23;101343.91;;;10.89;80.94
63512;BME280;49666;52.030;8.884;2024-01-30T11:20:49;101342.13;;;10.80;79.57
63512;BME280;49666;52.030;8.884;2024-01-30T11:23:14;101337.84;;;10.73;80.05
63512;BME280;49666;52.030;8.884;2024-01-30T11:25:40;101335.75;;;10.65;78.73
63512;BME280;49666;52.030;8.884;2024-01-30T11:28:15;101344.97;;;10.55;78.99
63512;BME280;49666;52.030;8.884;2024-01-30T11:30:41;101343.25;;;10.60;81.18
63512;BME280;49666;52.030;8.884;2024-01-30T11:33:11;101341.34;;;10.79;80.32
63512;BME280;49666;52.030;8.884;2024-01-30T11:35:40;101338.25;;;11.00;82.43
63512;BME280;49666;52.030;8.884;2024-01-30T11:38:10;101327.88;;;11.30;82.53
63512;BME280;49666;52.030;8.884;2024-01-30T11:40:38;101330.53;;;11.49;80.81
63512;BME280;49666;52.030;8.884;2024-01-30T11:43:04;101337.69;;;11.64;79.15
63512;BME280;49666;52.030;8.884;2024-01-30T11:45:31;101335.88;;;11.73;80.00
63512;BME280;49666;52.030;8.884;2024-01-30T11:47:56;101335.47;;;11.79;79.70
63512;BME280;49666;52.030;8.884;2024-01-30T11:50:22;101326.00;;;11.86;80.80
63512;BME280;49666;52.030;8.884;2024-01-30T11:52:48;101331.22;;;12.01;80.12
63512;BME280;49666;52.030;8.884;2024-01-30T11:55:14;101321.59;;;12.26;80.75
63512;BME280;49666;52.030;8.884;2024-01-30T11:57:40;101319.91;;;12.53;80.83
63512;BME280;49666;52.030;8.884;2024-01-30T12:00:06;101330.03;;;12.80;80.11
63512;BME280;49666;52.030;8.884;2024-01-30T12:02:36;101325.69;;;13.11;81.07
63512;BME280;49666;52.030;8.884;2024-01-30T12:05:05;101324.63;;;13.21;80.52
63512;BME280;49666;52.030;8.884;2024-01-30T12:07:30;101325.63;;;13.25;80.77
63512;BME280;49666;52.030;8.884;2024-01-30T12:09:56;101318.91;;;13.40;80.36
63512;BME280;49666;52.030;8.884;2024-01-30T12:12:26;101315.25;;;13.62;80.79
63512;BME280;49666;52.030;8.884;2024-01-30T12:14:52;101318.78;;;13.85;81.09
63512;BME280;49666;52.030;8.884;2024-01-30T12:17:44;101321.28;;;14.04;78.95
63512;BME280;49666;52.030;8.884;2024-01-30T12:20:10;101319.88;;;14.33;81.36
63512;BME280;49666;52.030;8.884;2024-01-30T12:22:42;101326.09;;;14.73;81.63
63512;BME280;49666;52.030;8.884;2024-01-30T12:25:09;101320.72;;;14.95;81.17
63512;BME280;49666;52.030;8.884;2024-01-30T12:27:35;101331.13;;;14.98;80.74
63512;BME280;49666;52.030;8.884;2024-01-30T12:30:00;101325.94;;;14.87;81.02
63512;BME280;49666;52.030;8.884;2024-01-30T12:32:26;101331.63;;;14.73;80.95
63512;BME280;49666;52.030;8.884;2024-01-30T12:34:55;101327.56;;;14.62;81.60
63512;BME280;49666;52.030;8.884;2024-01-30T12:37:21;101330.78;;;14.55;82.43
63512;BME280;49666;52.030;8.884;2024-01-30T12:39:48;101325.91;;;14.52;83.09
63512;BME280;49666;52.030;8.884;2024-01-30T12:42:14;101344.09;;;14.53;83.47
63512;BME280;49666;52.030;8.884;2024-01-30T12:44:39;101331.91;;;14.54;83.84
63512;BME280;49666;52.030;8.884;2024-01-30T12:47:05;101334.34;;;14.56;83.67
63512;BME280;49666;52.030;8.884;2024-01-30T12:49:31;101331.59;;;14.56;83.73
63512;BME280;49666;52.030;8.884;2024-01-30T12:51:56;101334.34;;;14.56;83.80
63512;BME280;49666;52.030;8.884;2024-01-30T12:54:22;101329.16;;;14.54;81.96